Time;durP1;ratioP1;P1;durP2;ratioP2;P2;SDS_P1;SDS_P2;PMS_P1;PMS_P2;Temp;Humidity;BMP_temperature;BMP_pressure;BME280_temperature;BME280_humidity;BME280_pressure;Samples;Min_cycle;Max_cycle;Signal;HPM_P1;HPM_P2
2023/12/30 00:01:21;;;;;;;5.78;3.88;;;;;;;15.35;51.60;96951.13;6156883;23;20012;-24
2023/12/30 00:13:51;;;;;;;7.70;3.55;;;;;;;15.21;51.61;96940.69;6155037;23;20041;-24
2023/12/30 00:29:43;;;;;;;7.25;5.00;;;;;;;15.31;51.86;96928.66;6155836;23;20017;-24
2023/12/30 00:59:03;;;;;;;6.38;4.47;;;;;;;15.25;52.17;96933.91;6155990;23;20041;-24
2023/12/30 01:14:55;;;;;;;9.77;5.32;;;;;;;15.10;52.10;96930.91;6153973;23;20075;-24
2023/12/30 01:30:48;;;;;;;8.35;4.97;;;;;;;15.28;51.27;96930.28;6154877;23;20080;-24
2023/12/30 02:00:07;;;;;;;9.90;5.40;;;;;;;15.20;51.72;96934.50;6155209;23;20072;-24
2023/12/30 02:16:00;;;;;;;7.72;4.10;;;;;;;15.37;50.99;96938.53;6153153;23;20036;-24
2023/12/30 02:31:52;;;;;;;7.72;3.97;;;;;;;15.25;51.42;96924.94;6154170;23;20037;-24
2023/12/30 02:45:04;;;;;;;6.75;3.58;;;;;;;15.17;51.77;96929.16;6155132;23;20083;-24
2023/12/30 03:00:56;;;;;;;6.32;4.40;;;;;;;15.29;51.54;96909.19;6154738;23;20448;-24
2023/12/30 03:17:14;;;;;;;5.82;3.83;;;;;;;15.14;52.32;96930.03;6152879;23;20036;-24
2023/12/30 03:30:38;;;;;;;7.63;4.25;;;;;;;15.27;52.55;96917.84;6155272;23;20455;-24
2023/12/30 03:46:30;;;;;;;6.18;4.00;;;;;;;15.13;52.96;96907.41;6154772;23;20012;-24
2023/12/30 04:02:22;;;;;;;8.95;4.97;;;;;;;15.21;53.21;96895.00;6155964;23;20012;-24
2023/12/30 04:32:06;;;;;;;10.10;5.05;;;;;;;15.21;53.03;96892.28;6155930;23;20020;-24
2023/12/30 04:47:58;;;;;;;11.65;6.07;;;;;;;15.20;52.43;96884.56;6156322;23;20012;-24
2023/12/30 05:03:51;;;;;;;6.93;4.93;;;;;;;15.24;52.69;96894.13;6155394;23;20097;-24
2023/12/30 05:20:04;;;;;;;7.68;4.88;;;;;;;15.21;52.99;96881.34;6153625;23;20025;-24
2023/12/30 05:33:25;;;;;;;8.05;5.95;;;;;;;15.04;53.75;96885.50;6156152;23;20085;-24
2023/12/30 05:49:17;;;;;;;7.38;5.20;;;;;;;15.13;53.84;96892.97;6154942;23;20392;-25
2023/12/30 06:05:16;;;;;;;6.43;5.15;;;;;;;15.15;53.51;96896.03;6155701;23;20017;-24
2023/12/30 06:21:08;;;;;;;8.55;5.85;;;;;;;15.22;53.34;96891.06;6152324;23;20040;-24
2023/12/30 06:37:01;;;;;;;9.13;5.40;;;;;;;15.20;53.20;96898.22;6154809;23;20460;-25
2023/12/30 07:06:21;;;;;;;11.10;7.22;;;;;;;15.18;53.60;96930.66;6155026;23;20339;-24
2023/12/30 07:22:13;;;;;;;11.32;6.53;;;;;;;15.08;54.05;96948.97;6153423;23;20115;-24
2023/12/30 07:38:05;;;;;;;6.10;4.15;;;;;;;15.18;54.27;96956.03;6156088;23;20040;-24
2023/12/30 07:51:25;;;;;;;6.68;3.38;;;;;;;15.14;54.47;96957.34;6156512;23;20071;-24
2023/12/30 08:07:18;;;;;;;3.78;2.78;;;;;;;14.98;55.55;96975.41;6156382;23;20020;-24
2023/12/30 08:23:10;;;;;;;15.75;11.95;;;;;;;15.05;55.90;96990.81;6154238;23;20474;-24
2023/12/30 08:52:30;;;;;;;16.70;8.35;;;;;;;15.25;56.56;97001.44;6155742;23;20025;-24
2023/12/30 09:08:22;;;;;;;12.57;7.95;;;;;;;15.69;55.62;97008.50;6155513;23;20017;-24
2023/12/30 09:24:14;;;;;;;7.93;4.57;;;;;;;22.40;38.58;97016.69;6153558;23;20032;-24
2023/12/30 09:37:40;;;;;;;8.45;4.78;;;;;;;25.49;32.08;97025.84;6156102;23;20021;-24
2023/12/30 09:53:32;;;;;;;6.30;3.40;;;;;;;18.39;47.34;97013.03;6154991;23;20097;-24
2023/12/30 10:09:24;;;;;;;5.38;3.88;;;;;;;17.16;51.67;97005.13;6155049;23;20016;-25
2023/12/30 10:38:26;;;;;;;4.95;3.22;;;;;;;16.22;54.69;96983.09;6155069;23;20040;-25
2023/12/30 10:54:26;;;;;;;2.85;2.30;;;;;;;16.00;55.04;96966.72;6154824;23;20095;-24
2023/12/30 11:10:22;;;;;;;3.58;2.65;;;;;;;16.07;54.79;96945.31;6156289;23;20020;-25
2023/12/30 11:40:11;;;;;;;5.22;3.15;;;;;;;15.96;55.36;96906.69;6156225;23;20032;-24
2023/12/30 11:56:04;;;;;;;5.85;4.07;;;;;;;16.01;55.71;96888.94;6155891;23;20016;-24
2023/12/30 12:09:29;;;;;;;4.82;3.38;;;;;;;16.08;55.55;96875.72;6156795;23;20059;-24
2023/12/30 12:25:22;;;;;;;10.77;4.60;;;;;;;16.03;55.84;96859.91;6154628;23;20071;-25
2023/12/30 12:41:14;;;;;;;10.25;4.78;;;;;;;15.87;56.43;96859.38;6155414;23;20187;-24
2023/12/30 13:26:44;;;;;;;5.68;3.83;;;;;;;16.11;56.13;96809.16;6154169;23;20085;-24
2023/12/30 13:56:05;;;;;;;4.60;3.28;;;;;;;15.94;56.55;96821.59;6155352;23;20017;-24
2023/12/30 14:12:01;;;;;;;3.97;2.90;;;;;;;15.87;56.84;96821.88;6154398;23;20076;-24
2023/12/30 14:27:54;;;;;;;6.20;2.80;;;;;;;15.96;56.74;96824.63;6153595;23;20040;-24
2023/12/30 14:41:08;;;;;;;3.75;2.75;;;;;;;16.05;56.18;96830.13;6155041;23;20023;-24
2023/12/30 14:57:02;;;;;;;11.80;3.30;;;;;;;16.10;56.09;96831.50;6151960;23;20347;-26
2023/12/30 15:13:20;;;;;;;5.82;3.78;;;;;;;16.19;56.28;96820.59;6163877;23;20093;-24
2023/12/30 15:43:59;;;;;;;6.28;4.45;;;;;;;15.91;57.33;96814.28;6124777;23;20032;-24
2023/12/30 15:56:58;;;;;;;8.20;5.07;;;;;;;15.96;57.29;96829.31;6127130;23;20016;-24
2023/12/30 16:12:51;;;;;;;11.82;7.38;;;;;;;16.09;56.60;96838.94;6126978;23;20017;-25
2023/12/30 16:28:43;;;;;;;14.68;8.95;;;;;;;15.98;57.17;96833.13;6150139;23;20024;-25
2023/12/30 16:44:35;;;;;;;26.35;14.43;;;;;;;15.91;57.16;96844.38;6155166;23;20017;-24
2023/12/30 16:57:42;;;;;;;27.98;14.82;;;;;;;15.91;57.06;96838.91;6156346;23;20447;-24
2023/12/30 17:13:34;;;;;;;26.80;13.65;;;;;;;16.05;56.57;96843.81;6155767;23;20028;-24
2023/12/30 17:29:26;;;;;;;20.92;12.90;;;;;;;16.04;56.35;96847.75;6153804;23;20044;-25
2023/12/30 17:58:45;;;;;;;31.60;18.42;;;;;;;15.88;56.72;96853.47;6155367;23;20020;-24
2023/12/30 18:14:40;;;;;;;21.60;13.63;;;;;;;15.87;56.55;96859.38;6154939;23;20016;-24
2023/12/30 18:30:34;;;;;;;18.35;10.38;;;;;;;15.86;56.23;96872.31;6153065;23;20025;-24
2023/12/30 18:43:54;;;;;;;18.52;13.73;;;;;;;15.96;56.13;96862.91;6155481;23;20021;-25
2023/12/30 18:59:51;;;;;;;17.80;12.15;;;;;;;15.92;56.29;96867.00;6154616;23;20076;-25
2023/12/30 19:15:43;;;;;;;18.30;11.82;;;;;;;15.85;56.49;96870.78;6154200;23;20533;-24
2023/12/30 19:46:05;;;;;;;41.90;25.17;;;;;;;15.88;56.38;96872.63;6156139;23;20095;-25
2023/12/30 20:15:27;;;;;;;37.05;24.52;;;;;;;15.93;56.74;96877.50;6156605;23;20359;-24
2023/12/30 20:31:19;;;;;;;29.77;16.95;;;;;;;15.84;56.69;96866.50;6154288;23;20083;-24
2023/12/30 20:47:12;;;;;;;28.73;17.30;;;;;;;15.88;56.72;96878.09;6155484;23;20080;-24
2023/12/30 21:00:23;;;;;;;26.60;15.55;;;;;;;15.82;56.73;96872.44;6156037;23;20466;-24
2023/12/30 21:16:17;;;;;;;18.45;12.60;;;;;;;15.87;56.58;96859.38;6155911;23;20017;-24
2023/12/30 21:32:09;;;;;;;18.67;11.27;;;;;;;15.79;56.18;96869.84;6153612;23;20028;-25
2023/12/30 22:01:28;;;;;;;17.40;10.82;;;;;;;15.68;56.29;96874.97;6155339;23;20455;-24
2023/12/30 22:17:39;;;;;;;14.65;10.55;;;;;;;15.66;56.21;96880.13;6154724;23;20075;-24
2023/12/30 22:47:49;;;;;;;12.93;8.50;;;;;;;15.85;55.92;96870.78;6154686;23;20072;-25
2023/12/30 23:03:41;;;;;;;7.93;5.78;;;;;;;15.80;56.17;96860.44;6153936;23;20394;-24
2023/12/30 23:16:59;;;;;;;10.13;6.00;;;;;;;15.93;55.93;96852.13;6155231;23;20089;-24
2023/12/30 23:32:51;;;;;;;22.65;14.98;;;;;;;15.67;56.73;96835.94;6153677;23;20029;-25
2023/12/30 23:48:43;;;;;;;21.75;13.73;;;;;;;15.54;56.64;96829.00;6154317;23;20092;-24
